• Join FlightAware (Why Join?)
  • Login
  • US Flag GB Flag 
13:22 EST


 

Airport Tracker/Info


-or-


 

Live Flight TrackerFlight Track Log ✈ SWA750 ✈ 30-Apr-2013 ✈ KDEN - KLAX

Flight Track Log - Related Links

Times and Time Zones

All times are in EDT time to prevent confusion due to time zone crossing. See the SWA750 flight status page for this flight to view local times or setup timezone preferences in your user account.

Time Position Orientation Groundspeed Altitude Reporting Facility
EDT Latitude Longitude Course Direction KTS MPH feet Rate Location/Type
21:59 39.8167 -104.8500 250° West 258 297 10,100  Level Denver TRACON
22:00 39.7833 -104.9500 247° West 301 346 12,400 3,360 Climbing Denver TRACON
22:01 39.7667 -105.0333 255° West 264 304 16,900 3,480 Climbing Denver TRACON
22:02 39.7203 -105.1544 244° Southwest 286 329 20,300 2,640 Climbing Denver Center
22:03 39.6426 -105.3143 244° Southwest  Level FlightAware Approximate
22:03 39.6847 -105.2522 245° Southwest 299 344 23,000  Level Denver Center
22:04 39.5996 -105.4432 250° West  Level FlightAware Approximate
22:04 39.6481 -105.3539 245° Southwest 311 358 25,400  Level Denver Center
22:05 39.6092 -105.4619 245° Southwest 326 375 28,000 1,860 Climbing Denver Center
22:06 39.5678 -105.5736 244° Southwest 341 392 29,300 1,380 Climbing Denver Center
22:07 39.5292 -105.6964 248° West 365 420 30,900 1,740 Climbing Denver Center
22:08 39.4878 -105.8456 250° West 372 428 32,900 1,860 Climbing Denver Center
22:09 39.4544 -105.9758 252° West 376 433 34,800 1,860 Climbing Denver Center
22:10 39.4178 -106.1039 250° West 377 434 36,800 1,020 Climbing Denver Center
22:12 39.3497 -106.3492 250° West 368 423 38,000 360 Climbing Denver Center
22:13 39.3075 -106.4947 249° West 385 443 38,000  Level Denver Center
22:14 39.2711 -106.6192 249° West 385 443 38,000  Level Denver Center
22:15 39.2347 -106.7342 248° West 367 422 38,000  Level Denver Center
22:17 39.1401 -106.8595 230° Southwest  Level FlightAware Approximate
22:18 39.0164 -107.0711 229° Southwest 384 442 38,000  Level Denver Center
22:19 38.9542 -107.1689 231° Southwest 374 430 38,000  Level Denver Center
22:20 38.8906 -107.2672 230° Southwest 372 428 38,000  Level Denver Center
22:21 38.8164 -107.3803 230° Southwest 371 427 38,000  Level Denver Center
22:22 38.7519 -107.4803 230° Southwest 376 433 38,000  Level Denver Center
22:23 38.6864 -107.5792 230° Southwest 379 436 38,000  Level Denver Center
22:24 38.6543 -107.6072 229° Southwest  Level FlightAware Approximate
22:24 38.6103 -107.6950 230° Southwest 379 436 38,000  Level Denver Center
22:25 38.5450 -107.7947 230° Southwest 381 438 38,000  Level Denver Center
22:27 38.4683 -107.9106 230° Southwest 381 438 38,000  Level Denver Center
22:28 38.4031 -108.0094 230° Southwest 380 437 38,000  Level Denver Center
22:29 38.3369 -108.1081 229° Southwest 382 440 38,000  Level Denver Center
22:30 38.2578 -108.2267 230° Southwest 389 448 38,000  Level Denver Center
22:31 38.1897 -108.3297 230° Southwest 396 456 38,000  Level Denver Center
22:32 38.1111 -108.4472 230° Southwest 392 451 38,000  Level Denver Center
22:33 38.0478 -108.5406 229° Southwest 389 448 38,000  Level Denver Center
22:34 37.9517 -108.6356 218° Southwest 396 456 38,000  Level Denver Center
22:35 37.8672 -108.7175 217° Southwest 397 457 38,000  Level Denver Center
22:36 37.7847 -108.8022 219° Southwest 399 459 38,000  Level Denver Center
22:37 37.6872 -108.8986 218° Southwest 396 456 38,000  Level Denver Center
22:38 37.6056 -108.9819 219° Southwest 396 456 38,000  Level Denver Center
22:39 37.5097 -109.0811 219° Southwest 399 459 38,000  Level Denver Center
22:40 37.4306 -109.1664 221° Southwest 393 452 38,000  Level Denver Center
22:41 37.3858 -109.2819 244° Southwest 384 442 38,000  Level Denver Center
22:42 37.3353 -109.4153 245° Southwest 381 438 38,000  Level Denver Center
22:43 37.2897 -109.5300 244° Southwest 383 441 38,000  Level Denver Center
22:44 37.2369 -109.6658 244° Southwest 387 445 38,000  Level Denver Center
22:45 37.1917 -109.7822 244° Southwest 387 445 38,000  Level Denver Center
22:46 37.1464 -109.8986 244° Southwest 388 447 38,000  Level Denver Center
22:47 37.0911 -110.0353 243° Southwest 394 453 38,000  Level Denver Center
22:48 37.0461 -110.1519 244° Southwest 390 449 38,000  Level Denver Center
22:49 36.9939 -110.2803 243° Southwest 389 448 38,000  Level Denver Center
22:50 36.9453 -110.4017 243° Southwest 391 450 38,000  Level Denver Center
22:51 36.8964 -110.5233 243° Southwest 390 449 38,000  Level Denver Center
22:53 36.7989 -110.7672 244° Southwest 394 453 38,000  Level Denver Center
22:54 36.7497 -110.8875 243° Southwest 390 449 38,000  Level Denver Center
22:55 36.7000 -111.0106 243° Southwest 394 453 38,000  Level Denver Center
22:56 36.6503 -111.1333 243° Southwest 397 457 38,000  Level Denver Center
22:57 36.5997 -111.2544 243° Southwest 395 455 38,000  Level Denver Center
22:58 36.5600 -111.3517 243° Southwest 394 453 38,000  Level Denver Center
22:59 36.4883 -111.5217 242° Southwest 396 456 38,000  Level Denver Center
23:00 36.4292 -111.6672 243° Southwest 394 453 38,000  Level Denver Center
23:01 36.3775 -111.7900 242° Southwest 399 459 38,000  Level Denver Center
23:02 36.3258 -111.9133 243° Southwest 401 461 38,000  Level Denver Center
23:03 36.3061 -111.9600 242° Southwest 394 453 38,000  Level Los Angeles Center
23:04 36.2561 -112.0806 243° Southwest 393 452 38,000  Level Los Angeles Center
23:05 36.2036 -112.2036 242° Southwest 398 458 38,000  Level Los Angeles Center
23:06 36.1506 -112.3289 242° Southwest 406 467 38,000  Level Los Angeles Center
23:07 36.0967 -112.4519 242° Southwest 407 468 38,000  Level Los Angeles Center
23:08 36.0450 -112.5744 242° Southwest 404 465 38,000  Level Los Angeles Center
23:09 35.9831 -112.7194 242° Southwest 399 459 38,000  Level Los Angeles Center
23:10 35.9347 -112.8322 242° Southwest 398 458 38,000  Level Los Angeles Center
23:11 35.8836 -112.9511 242° Southwest 397 457 38,000  Level Los Angeles Center
23:12 35.8319 -113.0692 242° Southwest 396 456 38,000  Level Los Angeles Center
23:13 35.7800 -113.1883 242° Southwest 399 459 38,000  Level Los Angeles Center
23:14 35.7075 -113.3553 242° Southwest 399 459 38,000  Level Los Angeles Center
23:15 35.6556 -113.4753 242° Southwest 401 461 38,000  Level Los Angeles Center
23:16 35.6028 -113.5972 242° Southwest 406 467 38,000  Level Los Angeles Center
23:17 35.5536 -113.7217 244° Southwest 408 470 38,000  Level Los Angeles Center
23:18 35.5033 -113.8444 243° Southwest 407 468 38,000  Level Los Angeles Center
23:19 35.4414 -113.9961 243° Southwest 407 468 38,000  Level Los Angeles Center
23:20 35.3897 -114.1222 243° Southwest 412 474 38,000  Level Los Angeles Center
23:21 35.3383 -114.2464 243° Southwest 410 472 38,000  Level Los Angeles Center
23:23 35.2872 -114.3607 241° Southwest  Level FlightAware Approximate
23:25 35.1833 -114.6203 244° Southwest 410 472 38,000  Level Los Angeles Center
23:26 35.1311 -114.7464 243° Southwest 414 476 38,000  Level Los Angeles Center
23:27 35.0789 -114.8714 243° Southwest 413 475 38,000  Level Los Angeles Center
23:28 35.0250 -114.9972 242° Southwest 416 479 38,000  Level Los Angeles Center
23:29 34.9617 -115.1500 243° Southwest 419 482 38,000  Level Los Angeles Center
23:30 34.9431 -115.1514 244° Southwest  Level FlightAware Approximate
23:30 34.9181 -115.2506 242° Southwest 418 481 38,000  Level Los Angeles Center
23:31 34.8544 -115.3986 242° Southwest 414 476 38,000  Level Los Angeles Center
23:32 34.8006 -115.5253 243° Southwest 418 481 38,000  Level Los Angeles Center
23:33 34.7450 -115.6592 243° Southwest 423 487 38,000  Level Los Angeles Center
23:34 34.6900 -115.7858 242° Southwest 424 488 38,000  Level Los Angeles Center
23:35 34.6347 -115.9114 242° Southwest 423 487 38,000  Level Los Angeles Center
23:36 34.5811 -116.0381 243° Southwest 423 487 38,000  Level Los Angeles Center
23:37 34.5253 -116.1639 242° Southwest 424 488 38,000 -720 Level Los Angeles Center
23:38 34.4706 -116.2914 243° Southwest 424 488 36,600 -2,640 Descending Los Angeles Center
23:39 34.4017 -116.4461 242° Southwest 433 498 32,600 -3,300 Descending Los Angeles Center
23:40 34.3447 -116.5764 242° Southwest 437 503 29,900 -2,640 Descending Los Angeles Center
23:41 34.2892 -116.7025 242° Southwest 427 491 27,200 -2,580 Descending Los Angeles Center
23:42 34.2344 -116.8256 242° Southwest 417 480 24,700 -2,460 Descending Los Angeles Center
23:43 34.1811 -116.9433 241° Southwest 403 464 22,200 -2,340 Descending Los Angeles Center
23:44 34.1300 -117.0583 242° Southwest 391 450 19,900 -2,160 Descending Los Angeles Center
23:45 34.1000 -117.1333 244° Southwest 369 425 18,800 -1,500 Descending Southern California TRACON
23:46 34.0333 -117.2333 231° Southwest 338 389 17,600 -1,440 Descending Southern California TRACON
23:47 33.9667 -117.3000 220° Southwest 324 373 16,000 -1,740 Descending Southern California TRACON
23:48 33.9500 -117.3833 256° West 310 357 14,200 -1,680 Descending Southern California TRACON
23:49 33.9833 -117.4667 296° West 287 330 12,700 -1,260 Descending Southern California TRACON
23:51 34.0072 -117.6210 253° West  Level FlightAware Approximate
23:53 33.9892 -117.8639 259° West 260 299 7,400  Level Los Angeles Center
23:54 33.9808 -117.9528 264° West 265 305 6,300 -1,080 Descending Los Angeles Center
23:55 33.9667 -118.0000 250° West 262 302 5,900 -1,020 Descending Southern California TRACON
23:56 33.9667 -118.0833 270° West 252 290 4,900 -1,140 Descending Southern California TRACON
23:56 33.9625 -118.1392 265° West 259 298 4,100 -1,140 Descending Los Angeles Center
23:58 33.9333 -118.4000 259° West  Level FlightAware Approximate
23:58 33.9550 -118.2139 263° West 237 273 2,800  Level Los Angeles Center
23:59 33.9425 -118.4081 259° West  Level Estimated
23:59 33.9475 -118.2869 263° West 198 228 1,600  Level Los Angeles Center
00:00 33.9425 -118.3369 263° West 173 199 800 -780 Descending Los Angeles Center
00:01 33.9383 -118.3831 264° West 153 176 100 -720 Descending Los Angeles Center
00:03 33.9333 -118.4000 259° West  Level FlightAware Approximate